Time;durP1;ratioP1;P1;durP2;ratioP2;P2;SDS_P1;SDS_P2;PMS_P1;PMS_P2;Temp;Humidity;BMP_temperature;BMP_pressure;BME280_temperature;BME280_humidity;BME280_pressure;Samples;Min_cycle;Max_cycle;Signal;HPM_P1;HPM_P2
2024/01/28 00:00:19;;;;;;;3.80;2.30;;;;;;;0.66;81.22;96699.52;110503;1274;22102;-80
2024/01/28 00:03:09;;;;;;;5.50;3.00;;;;;;;0.66;81.49;96697.80;110539;1274;23046;-80
2024/01/28 00:05:38;;;;;;;5.40;2.00;;;;;;;0.66;81.46;96698.51;110592;1274;22174;-80
2024/01/28 00:08:07;;;;;;;13.60;6.50;;;;;;;0.67;81.52;96699.23;110524;1275;22263;-80
2024/01/28 00:10:35;;;;;;;5.80;2.80;;;;;;;0.70;81.75;96702.45;110490;1274;22245;-80
2024/01/28 00:13:04;;;;;;;4.30;2.20;;;;;;;0.71;81.59;96703.19;110587;1275;22140;-81
2024/01/28 00:15:32;;;;;;;7.60;3.40;;;;;;;0.71;81.43;96707.84;110505;1274;22314;-80
2024/01/28 00:18:00;;;;;;;4.70;3.00;;;;;;;0.73;81.31;96708.60;110528;1275;22114;-81
2024/01/28 00:20:29;;;;;;;3.80;2.30;;;;;;;0.75;81.32;96710.60;110589;1275;22203;-80
2024/01/28 00:22:57;;;;;;;3.70;2.50;;;;;;;0.79;81.38;96713.20;110575;1275;22154;-80
2024/01/28 00:25:25;;;;;;;3.50;2.40;;;;;;;0.83;81.27;96718.00;110519;1275;22118;-80
2024/01/28 00:27:53;;;;;;;5.10;2.80;;;;;;;0.86;81.10;96720.20;110512;1274;22167;-80
2024/01/28 00:30:21;;;;;;;6.30;2.80;;;;;;;0.87;80.98;96718.66;110488;1275;23279;-80
2024/01/28 00:32:49;;;;;;;4.10;2.60;;;;;;;0.87;80.92;96723.86;110518;1263;22235;-80
2024/01/28 00:35:18;;;;;;;4.00;2.30;;;;;;;0.91;80.95;96726.61;110492;1275;22191;-80
2024/01/28 00:37:46;;;;;;;3.80;2.50;;;;;;;0.90;80.66;96727.09;110481;1274;22142;-81
2024/01/28 00:40:14;;;;;;;3.40;2.40;;;;;;;0.89;80.73;96727.22;110501;1274;22320;-80
2024/01/28 00:42:42;;;;;;;4.00;2.80;;;;;;;0.88;80.75;96731.34;110504;1275;22135;-80
2024/01/28 00:45:10;;;;;;;3.40;2.50;;;;;;;0.88;80.83;96731.00;110589;1274;22355;-80
2024/01/28 00:47:44;;;;;;;5.30;2.50;;;;;;;0.86;80.77;96733.35;110560;1274;22986;-80
2024/01/28 00:50:12;;;;;;;4.00;2.60;;;;;;;0.83;80.65;96733.58;110580;1275;22183;-80
2024/01/28 00:52:40;;;;;;;4.30;2.60;;;;;;;0.80;80.61;96731.56;110575;1275;22281;-80
2024/01/28 00:55:09;;;;;;;4.40;2.60;;;;;;;0.78;80.67;96734.11;110475;1263;22324;-80
2024/01/28 00:57:37;;;;;;;5.30;3.30;;;;;;;0.78;80.79;96737.23;110501;1274;22131;-80
2024/01/28 01:00:06;;;;;;;3.80;2.50;;;;;;;0.76;80.78;96734.35;110509;1275;22099;-80
2024/01/28 01:02:35;;;;;;;4.20;2.80;;;;;;;0.72;80.82;96742.36;110569;1275;22131;-80
2024/01/28 01:05:03;;;;;;;5.00;2.70;;;;;;;0.67;81.25;96744.76;110527;1274;22947;-80
2024/01/28 01:07:32;;;;;;;4.40;2.90;;;;;;;0.64;81.24;96743.78;110500;1275;22131;-80
2024/01/28 01:10:00;;;;;;;5.20;2.90;;;;;;;0.62;81.28;96745.61;110519;1274;22142;-80
2024/01/28 01:12:28;;;;;;;5.00;2.80;;;;;;;0.59;81.38;96747.58;110501;1275;22154;-80
2024/01/28 01:14:56;;;;;;;3.70;2.90;;;;;;;0.56;81.55;96747.64;110500;1274;22269;-80
2024/01/28 01:17:24;;;;;;;5.20;3.20;;;;;;;0.55;81.49;96748.27;110590;1275;22128;-80
2024/01/28 01:19:52;;;;;;;5.90;3.10;;;;;;;0.56;81.55;96750.40;110507;1274;22132;-80
2024/01/28 01:22:21;;;;;;;5.00;3.30;;;;;;;0.56;81.79;96752.30;110528;1275;22272;-80
2024/01/28 01:24:49;;;;;;;6.90;3.70;;;;;;;0.59;81.64;96755.53;110522;1275;22220;-80
2024/01/28 01:27:17;;;;;;;6.30;3.20;;;;;;;0.60;81.57;96755.24;110500;1275;22115;-80
2024/01/28 01:29:46;;;;;;;4.80;3.20;;;;;;;0.63;81.62;96761.41;110515;1274;22117;-81
2024/01/28 01:32:14;;;;;;;6.70;4.20;;;;;;;0.63;81.72;96764.20;110589;1274;22158;-81
2024/01/28 01:34:42;;;;;;;5.90;3.40;;;;;;;0.61;82.17;96761.16;110493;1274;22129;-80
2024/01/28 01:37:10;;;;;;;4.70;3.30;;;;;;;0.61;82.08;96763.25;110489;1274;22130;-80
2024/01/28 01:39:38;;;;;;;7.40;3.80;;;;;;;0.65;82.20;96765.11;110530;1259;22314;-80
2024/01/28 01:42:07;;;;;;;6.40;4.30;;;;;;;0.70;82.17;96766.86;110486;1275;22421;-80
2024/01/28 01:44:35;;;;;;;7.60;4.60;;;;;;;0.75;82.18;96763.08;110501;1274;22337;-80
2024/01/28 01:47:04;;;;;;;8.00;4.40;;;;;;;0.78;82.11;96762.48;110516;1274;22237;-79
2024/01/28 01:49:32;;;;;;;9.20;5.50;;;;;;;0.79;82.10;96767.02;110599;1275;22144;-80
2024/01/28 01:52:02;;;;;;;7.30;5.40;;;;;;;0.82;82.15;96767.14;110506;1275;22318;-79
2024/01/28 01:54:31;;;;;;;9.10;5.00;;;;;;;0.85;82.07;96772.66;110515;1274;22170;-80
2024/01/28 01:56:59;;;;;;;5.60;4.00;;;;;;;0.88;82.01;96766.67;110506;1275;22235;-80
2024/01/28 01:59:28;;;;;;;9.10;5.20;;;;;;;0.89;81.94;96770.70;110504;1275;22882;-80
2024/01/28 02:01:59;;;;;;;8.40;4.50;;;;;;;0.93;82.14;96768.06;110610;1274;22264;-82
2024/01/28 02:04:27;;;;;;;6.10;4.60;;;;;;;0.93;81.94;96767.90;110511;1274;22143;-80
2024/01/28 02:06:55;;;;;;;9.00;5.50;;;;;;;0.88;81.88;96777.26;110480;1275;22882;-80
2024/01/28 02:09:24;;;;;;;11.40;6.80;;;;;;;0.84;81.84;96778.31;110513;1263;22766;-80
2024/01/28 02:11:52;;;;;;;9.00;5.50;;;;;;;0.80;82.00;96781.11;110523;1272;22869;-80
2024/01/28 02:14:24;;;;;;;10.80;5.80;;;;;;;0.77;82.07;96784.65;110568;1275;22205;-80
2024/01/28 02:16:53;;;;;;;8.70;5.10;;;;;;;0.73;82.03;96785.86;110475;1274;22179;-80
2024/01/28 02:19:21;;;;;;;10.30;5.40;;;;;;;0.69;82.04;96787.08;110473;1274;22156;-79
2024/01/28 02:21:49;;;;;;;9.50;5.40;;;;;;;0.65;82.18;96792.30;110590;1275;22284;-80
2024/01/28 02:24:18;;;;;;;12.20;6.60;;;;;;;0.62;82.18;96792.89;110458;1266;22157;-80
2024/01/28 02:26:46;;;;;;;8.00;5.60;;;;;;;0.60;82.53;96789.34;110473;1274;22876;-79
2024/01/28 02:29:14;;;;;;;7.50;4.50;;;;;;;0.56;82.53;96793.35;110488;1275;22143;-80
2024/01/28 02:31:45;;;;;;;8.30;4.30;;;;;;;0.54;82.57;96795.17;110606;1274;22163;-79
2024/01/28 02:34:14;;;;;;;8.80;5.70;;;;;;;0.52;82.61;96798.02;110503;1275;22135;-80
2024/01/28 02:36:42;;;;;;;5.10;3.90;;;;;;;0.49;82.90;96797.03;110530;1274;22264;-80
2024/01/28 02:39:11;;;;;;;6.90;4.80;;;;;;;0.41;83.28;96799.32;110529;1274;22196;-80
2024/01/28 02:41:39;;;;;;;7.60;5.30;;;;;;;0.34;83.81;96802.36;110518;1274;22950;-79
2024/01/28 02:44:07;;;;;;;6.60;4.70;;;;;;;0.32;83.69;96806.40;110504;1274;22448;-80
2024/01/28 02:46:35;;;;;;;6.00;4.00;;;;;;;0.29;83.62;96809.41;110564;1274;22862;-80
2024/01/28 02:49:03;;;;;;;7.10;4.50;;;;;;;0.29;83.67;96809.90;110475;1274;22935;-80
2024/01/28 02:51:32;;;;;;;5.60;3.50;;;;;;;0.27;83.88;96807.92;110520;1274;22167;-80
2024/01/28 02:54:00;;;;;;;5.60;4.20;;;;;;;0.28;84.00;96809.86;110493;1274;22493;-80
2024/01/28 02:56:28;;;;;;;4.10;3.30;;;;;;;0.26;84.20;96813.10;110607;1274;22132;-80
2024/01/28 02:58:56;;;;;;;4.30;3.10;;;;;;;0.28;84.01;96812.84;110523;1274;22188;-80
2024/01/28 03:01:24;;;;;;;5.20;3.10;;;;;;;0.29;84.12;96816.83;110481;1274;22917;-82
2024/01/28 03:03:53;;;;;;;6.70;4.20;;;;;;;0.29;83.88;96821.35;110513;1275;22759;-80
2024/01/28 03:06:21;;;;;;;6.80;3.90;;;;;;;0.33;84.00;96823.25;110510;1260;22115;-80
2024/01/28 03:08:49;;;;;;;6.10;3.30;;;;;;;0.34;83.80;96829.17;110511;1274;22129;-80
2024/01/28 03:11:17;;;;;;;3.30;2.80;;;;;;;0.37;83.71;96829.65;110506;1274;22905;-80
2024/01/28 03:13:46;;;;;;;4.80;3.10;;;;;;;0.42;83.46;96828.61;110481;1274;22916;-79
2024/01/28 03:16:14;;;;;;;4.70;3.00;;;;;;;0.45;83.67;96827.70;110550;1274;22128;-80
2024/01/28 03:18:43;;;;;;;5.20;3.70;;;;;;;0.50;83.64;96827.03;110568;1274;22103;-80
2024/01/28 03:21:11;;;;;;;4.60;3.50;;;;;;;0.57;83.66;96824.01;110487;1274;23005;-80
2024/01/28 03:23:39;;;;;;;4.30;3.10;;;;;;;0.61;83.54;96830.78;110488;1274;22130;-80
2024/01/28 03:26:10;;;;;;;4.50;3.10;;;;;;;0.67;83.44;96835.52;110508;1274;22196;-80
2024/01/28 03:28:39;;;;;;;5.40;3.50;;;;;;;0.76;83.47;96838.79;110524;1274;22312;-80
2024/01/28 03:31:07;;;;;;;4.80;3.40;;;;;;;0.84;83.25;96838.94;110513;1274;22911;-80
2024/01/28 03:33:35;;;;;;;5.80;4.30;;;;;;;0.84;82.69;96839.98;110491;1274;22277;-80
2024/01/28 03:36:04;;;;;;;5.70;3.10;;;;;;;0.91;83.02;96840.58;110519;1263;22341;-80
2024/01/28 03:38:32;;;;;;;6.20;4.50;;;;;;;0.94;82.82;96841.59;110604;1272;22444;-80
2024/01/28 03:41:01;;;;;;;5.40;4.20;;;;;;;1.00;82.79;96842.32;110556;1275;22968;-80
2024/01/28 03:43:29;;;;;;;3.60;3.10;;;;;;;1.04;82.88;96844.57;110534;1274;22206;-80
2024/01/28 03:45:58;;;;;;;6.00;3.80;;;;;;;1.08;82.42;96840.39;110511;1274;22267;-80
2024/01/28 03:48:26;;;;;;;4.90;3.10;;;;;;;1.08;81.90;96840.38;110508;1274;22296;-80
2024/01/28 03:50:55;;;;;;;4.30;2.90;;;;;;;1.00;81.38;96843.04;110584;1274;22148;-80
2024/01/28 03:53:23;;;;;;;9.80;5.00;;;;;;;0.92;81.16;96843.40;110577;1275;22222;-80
2024/01/28 03:55:51;;;;;;;5.70;3.40;;;;;;;0.87;81.29;96846.69;110492;1274;22287;-81
2024/01/28 03:58:19;;;;;;;4.50;3.30;;;;;;;0.80;81.08;96842.77;110510;1274;22165;-80
2024/01/28 04:00:48;;;;;;;7.00;3.30;;;;;;;0.74;81.14;96841.83;110483;1274;22131;-80
2024/01/28 04:03:16;;;;;;;5.50;2.80;;;;;;;0.69;81.31;96845.62;110478;1274;22271;-80
2024/01/28 04:05:45;;;;;;;4.10;2.70;;;;;;;0.60;81.43;96849.10;110469;1274;22768;-80
2024/01/28 04:08:13;;;;;;;3.70;2.60;;;;;;;0.56;81.53;96855.48;110589;1274;22903;-80
2024/01/28 04:10:41;;;;;;;4.20;2.90;;;;;;;0.53;81.61;96853.30;110499;1274;22187;-80
2024/01/28 04:13:09;;;;;;;3.70;2.90;;;;;;;0.48;81.77;96856.39;110497;1274;22172;-80
2024/01/28 04:15:37;;;;;;;4.50;3.20;;;;;;;0.44;81.90;96853.80;110542;1274;22146;-81
2024/01/28 04:18:06;;;;;;;4.70;3.20;;;;;;;0.38;82.03;96853.23;110442;1274;22204;-81
2024/01/28 04:20:34;;;;;;;4.50;3.30;;;;;;;0.37;82.13;96852.66;110488;1274;22130;-80
2024/01/28 04:23:03;;;;;;;4.00;2.80;;;;;;;0.36;82.33;96854.88;110560;1274;22187;-80
2024/01/28 04:25:33;;;;;;;4.20;2.80;;;;;;;0.38;82.45;96857.71;110532;1259;22991;-80
2024/01/28 04:28:01;;;;;;;3.10;2.50;;;;;;;0.38;82.80;96861.17;110459;1274;22362;-80
2024/01/28 04:30:29;;;;;;;4.00;3.10;;;;;;;0.37;83.13;96862.17;110495;1274;22936;-80
2024/01/28 04:32:58;;;;;;;3.20;2.70;;;;;;;0.40;83.20;96864.20;110479;1274;22104;-80
2024/01/28 04:35:26;;;;;;;3.70;2.50;;;;;;;0.39;83.64;96867.28;110533;1274;22170;-80
2024/01/28 04:37:54;;;;;;;4.50;3.20;;;;;;;0.41;83.59;96868.07;110503;1274;22124;-80
2024/01/28 04:40:22;;;;;;;4.50;3.00;;;;;;;0.41;83.97;96874.29;110468;1274;22998;-80
2024/01/28 04:42:50;;;;;;;5.10;3.20;;;;;;;0.44;84.07;96877.55;110516;1274;22374;-81
2024/01/28 04:45:19;;;;;;;5.70;3.40;;;;;;;0.44;84.30;96877.33;110523;1274;22395;-82
2024/01/28 04:47:47;;;;;;;4.30;2.80;;;;;;;0.43;84.41;96882.16;110498;1274;22120;-80
2024/01/28 04:50:15;;;;;;;5.90;3.70;;;;;;;0.39;84.97;96885.45;110516;1274;22803;-80
2024/01/28 04:52:44;;;;;;;5.20;3.70;;;;;;;0.39;84.85;96883.03;110499;1274;22362;-80
2024/01/28 04:55:12;;;;;;;5.20;3.60;;;;;;;0.42;84.84;96881.95;110513;1274;22892;-80
2024/01/28 04:57:40;;;;;;;5.30;3.00;;;;;;;0.44;84.95;96883.41;110525;1274;22219;-81
2024/01/28 05:00:12;;;;;;;6.20;4.10;;;;;;;0.44;84.97;96887.20;110534;1275;22858;-81
2024/01/28 05:02:41;;;;;;;6.30;4.40;;;;;;;0.43;85.27;96884.05;110429;1274;22934;-80
2024/01/28 05:05:09;;;;;;;9.00;5.00;;;;;;;0.44;85.22;96885.33;110534;1267;22177;-82
2024/01/28 05:07:37;;;;;;;19.50;9.00;;;;;;;0.46;85.25;96889.19;110456;1274;22144;-80
2024/01/28 05:10:09;;;;;;;8.20;4.70;;;;;;;0.42;85.53;96888.52;110508;1274;22877;-80
2024/01/28 05:12:37;;;;;;;15.80;9.10;;;;;;;0.36;85.90;96887.41;110596;1274;23109;-80
2024/01/28 05:15:07;;;;;;;8.00;5.30;;;;;;;0.28;86.32;96887.93;110503;1274;22372;-80
2024/01/28 05:17:36;;;;;;;11.00;5.60;;;;;;;0.19;87.06;96892.75;110562;1274;22131;-80
2024/01/28 05:20:06;;;;;;;4.60;3.60;;;;;;;0.16;87.20;96889.48;110479;1274;22947;-81
2024/01/28 05:22:35;;;;;;;4.10;3.20;;;;;;;0.12;87.27;96894.70;110507;1274;22864;-81
2024/01/28 05:25:04;;;;;;;5.20;3.60;;;;;;;0.05;88.05;96896.14;110514;1274;22131;-80
2024/01/28 05:27:34;;;;;;;5.10;3.60;;;;;;;0.03;87.84;96900.89;110501;1274;22807;-80
2024/01/28 05:30:03;;;;;;;4.10;2.60;;;;;;;-0.03;88.22;96903.94;110499;1274;23057;-80
2024/01/28 05:32:31;;;;;;;4.20;2.80;;;;;;;-0.06;88.44;96913.15;110554;1274;22174;-80
2024/01/28 05:35:04;;;;;;;3.20;2.40;;;;;;;-0.08;88.52;96919.77;110535;1274;22295;-81
2024/01/28 05:37:33;;;;;;;5.10;3.00;;;;;;;-0.10;88.86;96923.33;110495;1274;22130;-81
2024/01/28 05:40:02;;;;;;;5.30;2.90;;;;;;;-0.10;88.47;96928.34;110534;1274;22175;-80
2024/01/28 05:42:31;;;;;;;4.90;2.60;;;;;;;-0.10;88.75;96927.14;110613;1274;22812;-80
2024/01/28 05:44:59;;;;;;;3.10;2.10;;;;;;;-0.10;89.11;96928.55;110510;1274;22129;-80
2024/01/28 05:47:27;;;;;;;4.00;2.20;;;;;;;-0.09;89.15;96933.58;110573;1274;22911;-81
2024/01/28 05:49:55;;;;;;;5.30;2.80;;;;;;;-0.08;89.30;96937.27;110535;1274;22130;-80
2024/01/28 05:52:24;;;;;;;2.60;1.90;;;;;;;-0.04;89.07;96939.52;110422;1274;22153;-81
2024/01/28 05:54:52;;;;;;;4.10;2.60;;;;;;;-0.03;88.90;96945.28;110561;1274;22105;-80
2024/01/28 05:57:20;;;;;;;5.80;2.60;;;;;;;-0.02;88.84;96946.52;110519;1274;22317;-80
2024/01/28 05:59:49;;;;;;;3.50;2.30;;;;;;;-0.01;88.75;96951.95;110470;1274;22198;-80
2024/01/28 06:02:21;;;;;;;8.30;3.90;;;;;;;0.03;88.65;96957.10;110496;1274;22235;-80
2024/01/28 06:04:49;;;;;;;5.70;3.40;;;;;;;0.05;88.33;96960.14;110497;1274;22124;-80
2024/01/28 06:07:17;;;;;;;11.70;6.20;;;;;;;0.08;88.33;96962.85;110514;1274;22129;-80
2024/01/28 06:09:46;;;;;;;7.30;3.70;;;;;;;0.05;88.39;96966.88;110487;1274;22196;-80
2024/01/28 06:12:15;;;;;;;4.60;2.80;;;;;;;0.06;88.31;96975.54;110507;1274;22191;-81
2024/01/28 06:14:44;;;;;;;6.60;3.10;;;;;;;0.04;88.23;96973.60;110524;1274;22821;-81
2024/01/28 06:17:13;;;;;;;4.80;3.00;;;;;;;-0.03;88.37;96982.83;110509;1274;22212;-81
2024/01/28 06:19:42;;;;;;;8.10;3.20;;;;;;;-0.06;88.42;96984.58;110592;1274;22298;-81
2024/01/28 06:22:10;;;;;;;6.30;3.70;;;;;;;-0.06;88.46;96987.86;110512;1274;22204;-80
2024/01/28 06:24:40;;;;;;;7.10;3.40;;;;;;;-0.07;88.70;96987.66;110508;1274;23026;-80
2024/01/28 06:27:09;;;;;;;12.00;6.00;;;;;;;-0.02;88.48;96992.02;110602;1274;22822;-81
2024/01/28 06:29:38;;;;;;;13.80;6.60;;;;;;;0.02;88.31;96993.91;110511;1274;22134;-80
2024/01/28 06:32:06;;;;;;;12.70;5.90;;;;;;;0.03;88.31;96995.86;110526;1274;22213;-80
2024/01/28 06:34:35;;;;;;;7.50;4.20;;;;;;;0.03;88.29;96998.97;110524;1274;22133;-80
2024/01/28 06:37:03;;;;;;;6.80;3.80;;;;;;;0.01;88.15;96995.63;110525;1274;22139;-81
2024/01/28 06:39:31;;;;;;;6.10;3.10;;;;;;;-0.01;88.23;97000.35;110546;1274;22833;-82
2024/01/28 06:41:59;;;;;;;11.30;5.30;;;;;;;-0.04;88.08;97001.78;110512;1274;22117;-80
2024/01/28 06:44:27;;;;;;;9.40;5.40;;;;;;;-0.02;88.10;97006.02;110552;1274;22189;-81
2024/01/28 06:46:56;;;;;;;14.00;5.10;;;;;;;-0.01;88.15;97012.66;110544;1274;22321;-80
2024/01/28 06:49:24;;;;;;;10.80;4.70;;;;;;;0.02;88.04;97016.73;110509;1267;22135;-80
2024/01/28 06:51:52;;;;;;;11.50;4.00;;;;;;;0.02;87.95;97013.65;110497;1274;22810;-83
2024/01/28 06:54:21;;;;;;;7.80;3.70;;;;;;;0.03;87.81;97016.44;110526;1274;22611;-81
2024/01/28 06:56:49;;;;;;;12.70;4.50;;;;;;;0.03;87.70;97019.20;110486;1274;22188;-80
2024/01/28 06:59:20;;;;;;;12.90;4.70;;;;;;;0.00;87.64;97017.73;110522;1274;22320;-81
2024/01/28 07:01:49;;;;;;;11.60;6.50;;;;;;;0.00;87.66;97021.36;110551;1274;22224;-80
2024/01/28 07:04:17;;;;;;;20.70;9.50;;;;;;;-0.04;87.51;97020.81;110602;1275;22137;-80
2024/01/28 07:06:45;;;;;;;22.00;10.80;;;;;;;-0.07;87.74;97021.70;110515;1274;22146;-80
2024/01/28 07:09:15;;;;;;;39.60;15.30;;;;;;;-0.08;87.72;97026.00;110517;1274;22850;-80
2024/01/28 07:11:44;;;;;;;15.60;7.90;;;;;;;-0.09;87.73;97020.23;110604;1274;22132;-80
2024/01/28 07:14:12;;;;;;;10.40;5.50;;;;;;;-0.13;87.72;97026.64;110568;1274;22133;-81
2024/01/28 07:16:40;;;;;;;12.30;7.00;;;;;;;-0.17;87.71;97027.85;110615;1274;22706;-80
2024/01/28 07:19:12;;;;;;;8.50;3.70;;;;;;;-0.18;87.91;97029.69;110614;1274;22132;-81
2024/01/28 07:21:40;;;;;;;8.70;4.80;;;;;;;-0.21;88.01;97026.27;110529;1274;22171;-80
2024/01/28 07:24:08;;;;;;;9.70;5.00;;;;;;;-0.21;88.02;97024.54;110537;1274;22100;-82
2024/01/28 07:26:37;;;;;;;10.00;4.80;;;;;;;-0.19;88.09;97022.36;110563;1274;22122;-80
2024/01/28 07:29:05;;;;;;;6.20;4.20;;;;;;;-0.15;88.06;97024.13;110553;1274;22186;-80
2024/01/28 07:31:33;;;;;;;7.10;4.70;;;;;;;-0.12;87.89;97024.09;110537;1274;22128;-80
2024/01/28 07:34:03;;;;;;;7.80;3.70;;;;;;;-0.10;87.76;97027.81;110546;1274;22140;-81
2024/01/28 07:36:32;;;;;;;7.90;4.00;;;;;;;-0.07;87.87;97031.06;110520;1274;22103;-80
2024/01/28 07:39:07;;;;;;;8.80;4.80;;;;;;;0.00;87.90;97037.61;110531;1274;22156;-80
2024/01/28 07:41:36;;;;;;;7.90;3.30;;;;;;;0.03;87.50;97031.32;110564;1274;22137;-80
2024/01/28 07:44:04;;;;;;;6.80;3.30;;;;;;;0.09;87.30;97038.66;110550;1267;22375;-80
2024/01/28 07:46:33;;;;;;;10.50;4.60;;;;;;;0.16;87.05;97040.71;110560;1274;22769;-81
2024/01/28 07:49:01;;;;;;;7.50;3.80;;;;;;;0.18;86.88;97044.84;110540;1274;23020;-81
2024/01/28 07:51:29;;;;;;;11.30;5.20;;;;;;;0.20;86.59;97045.95;110554;1274;22168;-80
2024/01/28 07:53:57;;;;;;;12.70;5.60;;;;;;;0.25;86.75;97050.82;110527;1274;22173;-80
2024/01/28 07:56:26;;;;;;;9.40;5.20;;;;;;;0.29;86.59;97057.25;110527;1274;22602;-80
2024/01/28 07:58:54;;;;;;;12.50;5.00;;;;;;;0.30;86.32;97055.91;110531;1271;22983;-82
2024/01/28 08:01:23;;;;;;;8.60;4.40;;;;;;;0.31;86.11;97055.92;110552;1274;22229;-82
2024/01/28 08:03:52;;;;;;;7.90;3.50;;;;;;;0.26;86.00;97058.48;110533;1274;22447;-81
2024/01/28 08:06:20;;;;;;;9.40;4.00;;;;;;;0.28;85.98;97060.80;110533;1274;22223;-80
2024/01/28 08:08:49;;;;;;;6.10;3.40;;;;;;;0.28;86.10;97064.98;110503;1274;22223;-80
2024/01/28 08:11:17;;;;;;;9.90;4.70;;;;;;;0.30;86.11;97061.27;110539;1274;22217;-80
2024/01/28 08:13:45;;;;;;;10.60;5.50;;;;;;;0.35;86.15;97064.92;110523;1274;23052;-80
2024/01/28 08:16:14;;;;;;;7.50;4.70;;;;;;;0.37;85.82;97070.22;110557;1274;22125;-80
2024/01/28 08:18:42;;;;;;;14.80;6.80;;;;;;;0.40;85.69;97074.68;110524;1274;22123;-80
2024/01/28 08:21:10;;;;;;;10.10;4.60;;;;;;;0.44;85.59;97079.35;110571;1274;22165;-80
2024/01/28 08:23:39;;;;;;;5.20;3.40;;;;;;;0.44;85.34;97080.41;110508;1274;22115;-80
2024/01/28 08:26:08;;;;;;;11.80;4.30;;;;;;;0.43;85.10;97078.98;110548;1274;22186;-79
2024/01/28 08:28:36;;;;;;;7.60;4.20;;;;;;;0.43;84.98;97077.23;110551;1274;22112;-80
2024/01/28 08:31:04;;;;;;;10.90;5.20;;;;;;;0.46;84.93;97088.45;110542;1274;22134;-80
2024/01/28 08:33:33;;;;;;;11.70;4.50;;;;;;;0.49;84.93;97094.61;110531;1274;22135;-80
2024/01/28 08:36:01;;;;;;;8.70;3.80;;;;;;;0.51;84.61;97099.23;110520;1274;22085;-80
2024/01/28 08:38:32;;;;;;;19.00;5.30;;;;;;;0.49;84.45;97101.37;110535;1274;22329;-80
2024/01/28 08:41:00;;;;;;;7.50;4.10;;;;;;;0.51;84.51;97103.89;110423;1274;22203;-80
2024/01/28 08:43:28;;;;;;;10.20;4.10;;;;;;;0.50;84.46;97105.24;110601;1274;22101;-80
2024/01/28 08:45:57;;;;;;;6.60;4.00;;;;;;;0.50;84.41;97107.68;110522;1274;22202;-80
2024/01/28 08:48:25;;;;;;;9.10;3.30;;;;;;;0.51;84.30;97109.42;110493;1274;22130;-80
2024/01/28 08:50:53;;;;;;;8.00;3.20;;;;;;;0.51;84.28;97115.70;110509;1274;22105;-80
2024/01/28 08:53:21;;;;;;;8.80;3.50;;;;;;;0.50;84.10;97121.71;110527;1274;22961;-80
2024/01/28 08:55:50;;;;;;;10.90;4.70;;;;;;;0.49;84.08;97125.09;110527;1274;22960;-80
2024/01/28 08:58:18;;;;;;;7.30;3.50;;;;;;;0.48;84.30;97126.94;110607;1274;22155;-80
2024/01/28 09:00:46;;;;;;;7.60;3.50;;;;;;;0.50;84.25;97128.80;110536;1274;22836;-79
2024/01/28 09:03:14;;;;;;;7.20;3.60;;;;;;;0.54;84.21;97127.60;110507;1274;22137;-79
2024/01/28 09:05:43;;;;;;;9.20;4.50;;;;;;;0.56;84.06;97133.21;110520;1274;22143;-79
2024/01/28 09:08:11;;;;;;;10.40;5.10;;;;;;;0.61;84.19;97137.08;110564;1274;22116;-79
2024/01/28 09:10:39;;;;;;;11.00;4.70;;;;;;;0.66;83.99;97137.83;110528;1274;22167;-79
2024/01/28 09:13:07;;;;;;;10.80;5.70;;;;;;;0.70;83.93;97139.23;110528;1274;22449;-79
2024/01/28 09:15:36;;;;;;;11.80;5.00;;;;;;;0.74;83.64;97142.14;110531;1274;22122;-79
2024/01/28 09:18:04;;;;;;;7.50;4.40;;;;;;;0.75;83.58;97145.84;110610;1274;22100;-81
2024/01/28 09:20:32;;;;;;;14.30;6.50;;;;;;;0.74;83.29;97146.30;110574;1274;22831;-79
2024/01/28 09:23:04;;;;;;;14.20;7.20;;;;;;;0.71;83.34;97149.48;110537;1274;22183;-79
2024/01/28 09:25:33;;;;;;;11.00;5.70;;;;;;;0.71;83.43;97152.59;110521;1274;22145;-81
2024/01/28 09:28:03;;;;;;;14.70;6.00;;;;;;;0.69;83.16;97149.70;110536;1274;22121;-80
2024/01/28 09:30:31;;;;;;;11.00;5.90;;;;;;;0.67;83.21;97148.10;110520;1274;22197;-79
2024/01/28 09:32:59;;;;;;;11.30;6.20;;;;;;;0.65;83.26;97147.97;110521;1274;22165;-79
2024/01/28 09:35:27;;;;;;;15.30;7.20;;;;;;;0.65;83.29;97146.80;110541;1274;22240;-79
2024/01/28 09:37:57;;;;;;;14.50;7.60;;;;;;;0.67;83.30;97145.81;110543;1274;22205;-79
2024/01/28 09:40:25;;;;;;;17.80;8.00;;;;;;;0.71;83.56;97147.05;110506;1274;23146;-80
2024/01/28 09:43:22;;;;;;;9.50;5.10;;;;;;;0.73;83.13;97145.58;110539;1274;22175;-79
2024/01/28 09:45:51;;;;;;;11.70;5.40;;;;;;;0.69;82.99;97140.56;110546;1274;22237;-79
2024/01/28 09:48:20;;;;;;;12.10;5.70;;;;;;;0.63;83.14;97142.73;110539;1274;22291;-79
2024/01/28 09:50:48;;;;;;;8.00;4.10;;;;;;;0.65;83.21;97144.90;110513;1274;23316;-79
2024/01/28 09:53:17;;;;;;;11.00;4.90;;;;;;;0.66;83.04;97144.93;110583;1274;22131;-79
2024/01/28 09:55:45;;;;;;;6.60;4.00;;;;;;;0.66;83.08;97146.31;110539;1274;22197;-79
2024/01/28 09:58:14;;;;;;;7.20;3.30;;;;;;;0.65;82.94;97142.64;110537;1274;22318;-79
2024/01/28 10:00:43;;;;;;;8.30;4.20;;;;;;;0.67;83.02;97140.45;110530;1274;22147;-79
2024/01/28 10:03:11;;;;;;;10.50;4.20;;;;;;;0.69;83.00;97142.97;110549;1274;23017;-79
2024/01/28 10:05:39;;;;;;;7.80;4.00;;;;;;;0.70;83.05;97141.98;110535;1274;22212;-79
2024/01/28 10:08:08;;;;;;;8.80;4.30;;;;;;;0.76;83.03;97142.10;110524;1274;22304;-79
2024/01/28 10:10:36;;;;;;;8.40;4.50;;;;;;;0.85;83.26;97142.30;110565;1275;22976;-79
2024/01/28 10:13:04;;;;;;;8.00;3.70;;;;;;;0.92;82.65;97140.35;110513;1274;22111;-79
2024/01/28 10:15:32;;;;;;;12.30;6.30;;;;;;;1.00;82.76;97144.14;110519;1274;22267;-79
2024/01/28 10:18:01;;;;;;;8.90;3.40;;;;;;;1.09;82.37;97142.45;110522;1274;22128;-79
2024/01/28 10:20:30;;;;;;;11.00;5.20;;;;;;;1.19;82.50;97141.84;110538;1274;22120;-79
2024/01/28 10:23:00;;;;;;;7.80;4.80;;;;;;;1.34;82.37;97140.77;110546;1274;22137;-79
2024/01/28 10:25:29;;;;;;;11.50;5.70;;;;;;;1.45;81.83;97135.15;110534;1275;22176;-79
2024/01/28 10:28:00;;;;;;;15.20;6.70;;;;;;;1.52;81.49;97136.64;110535;1274;22122;-80
2024/01/28 10:30:29;;;;;;;11.10;5.90;;;;;;;1.50;80.62;97135.34;110534;1274;22135;-79
2024/01/28 10:32:57;;;;;;;8.10;4.70;;;;;;;1.49;80.42;97133.92;110561;1270;22124;-80
2024/01/28 10:35:26;;;;;;;8.30;4.20;;;;;;;1.48;79.85;97130.23;110526;1268;22121;-79
2024/01/28 10:37:56;;;;;;;11.60;5.20;;;;;;;1.46;79.97;97127.70;110600;1274;22149;-79
2024/01/28 10:40:31;;;;;;;8.20;3.90;;;;;;;1.49;79.92;97129.90;110507;1274;22110;-79
2024/01/28 10:43:02;;;;;;;7.20;3.90;;;;;;;1.51;79.76;97136.42;110523;1274;22236;-79
2024/01/28 10:45:32;;;;;;;8.00;3.70;;;;;;;1.55;79.50;97134.67;110599;1274;22121;-79
2024/01/28 10:48:08;;;;;;;9.70;5.60;;;;;;;1.59;79.24;97135.52;110585;1274;22131;-78
2024/01/28 10:50:39;;;;;;;7.00;3.70;;;;;;;1.62;79.13;97141.21;110480;1273;22146;-79
2024/01/28 10:53:09;;;;;;;10.90;6.40;;;;;;;1.60;78.93;97140.25;110483;1274;22132;-79
2024/01/28 10:55:42;;;;;;;8.20;4.70;;;;;;;1.60;79.11;97136.98;110276;1274;374922;-79
2024/01/28 10:58:11;;;;;;;9.40;4.20;;;;;;;1.63;78.93;97136.57;110561;1271;22204;-79
2024/01/28 11:00:40;;;;;;;6.40;3.90;;;;;;;1.67;78.83;97136.75;110536;1274;22964;-79
2024/01/28 11:03:09;;;;;;;9.90;4.80;;;;;;;1.71;79.06;97129.44;110548;1274;22305;-79
2024/01/28 11:05:39;;;;;;;10.20;4.70;;;;;;;1.70;78.77;97126.95;110565;1259;22127;-79
2024/01/28 11:08:07;;;;;;;8.70;5.00;;;;;;;1.65;78.74;97136.83;110535;1274;22108;-79
2024/01/28 11:10:37;;;;;;;8.20;5.00;;;;;;;1.62;78.77;97139.30;110465;1274;22120;-79
2024/01/28 11:13:06;;;;;;;6.20;4.00;;;;;;;1.60;78.86;97136.09;110577;1274;22832;-80
2024/01/28 11:15:34;;;;;;;9.60;4.60;;;;;;;1.46;78.31;97136.55;110564;1274;22223;-80
2024/01/28 11:18:06;;;;;;;9.10;3.60;;;;;;;1.40;78.80;97144.80;110528;1274;22115;-79
2024/01/28 11:20:34;;;;;;;7.80;4.20;;;;;;;1.35;79.23;97145.99;110620;1275;22138;-79
2024/01/28 11:23:04;;;;;;;8.40;3.30;;;;;;;1.39;79.52;97141.81;110540;1274;22134;-79
2024/01/28 11:25:36;;;;;;;5.30;2.90;;;;;;;1.43;79.33;97141.31;110589;1274;22106;-79
2024/01/28 11:28:05;;;;;;;7.00;3.30;;;;;;;1.44;78.85;97137.00;110562;1274;22116;-79
2024/01/28 11:30:34;;;;;;;7.00;3.10;;;;;;;1.46;78.97;97139.48;110563;1274;22148;-78
2024/01/28 11:33:15;;;;;;;9.40;3.90;;;;;;;1.51;78.89;97145.11;110610;1274;22125;-80
2024/01/28 11:35:45;;;;;;;10.30;5.30;;;;;;;1.56;78.83;97143.54;110596;1274;22857;-78